Loisir ou Compétition : Rejoignez un Club de la Fédération

Résultats

LA TRANSJURASSIENNE MARATHON SKI TOUR

LAMOURA MOUTHE

FP Dames

Jury de Compétition

Délégué Technique :
GRANDEMANGE PHILIPPE (MV)
D.T. Adjoint :
 
Dir. Epreuve :
VANDEL PIERRE (MJ)

Caractéristiques de la Piste

Piste :
Lamoura-Mouthe
Distance :
57 km
Point Haut :
 
Point Bas :
 
Montée Tot. :
 
Montée Max. :
 
Homologation :
 

Pénalité Appliquée :
19.7100
Coefficient :
1400

Catégorie :
SEN->M12
Style :
L
Clt Dos Clt/Cat Code An Nom Prénom Com Club Temps Ecart Points
Classés
1 5005 1/SEN FFS2127296 1983 BOURGEOIS CELIA DA GUC GRENOBLE 2h44:52.0 00:00.0 19.71
2 5011 1/Mas3 FFS690106 1972 COUPAT ELISABETH FZ BESSAT S HIV 2h54:52.2 10:00.2 104.66
3 5008 1/Mas1 FFS740074 1982 BOURGEOIS PIN ELODIE SA CS LA FECLAZ 3h06:48.4 21:56.4 206.02
4 5035 2/SEN FFS2600933 1990 DEWAELE MARINE MB CS CHAMONIX 3h08:16.0 23:24.0 218.42
5 5022 2/Mas1 FFS2287296 1979 FINANCE CAROLINE MV SC OBERHASLA 3h10:44.8 25:52.8 239.48
6 5039 3/SEN FFS2322902 1992 LAZZAROTTO JULIETTE MJ HT JURA SKI 3h14:31.7 29:39.7 271.59
7 5036 4/SEN FFS2199106 1986 MACABIES PAULINE SA DOUA/BESSANS 3h17:20.3 32:28.3 295.45
8 5016 3/Mas1 FFS2667532 1980 KREMER JEZABEL MJ BOIS D'AMONT 3h23:23.5 38:31.5 346.85
9 5237 4/Mas1 TIC610602110 1982 Livers Catrina 3h24:03.1 39:11.1 352.46
10 5037 5/Mas1 LCN11384097 1978 Ballet-Baz Aline MB ASPTT ANNECY 3h27:20.6 42:28.6 380.41
11 5027 5/SEN FFS2627470 1991 MOUGIN MANON MJ DAMPRICHARD 3h28:18.2 43:26.2 388.56
12 5020 6/SEN FFS2260826 1986 BLONDEAU MARION MJ SC MONT NOIR 3h29:35.0 44:43.0 399.43
13 5019 6/Mas1 LCN11349857 1980 Baverel Fanny MJ ENTENTE SPOR 3h31:20.2 46:28.2 414.32
14 5023 1/Mas4 FFS2185651 1967 GAIDET LAURENCE SA US ROSIERE 3h33:40.1 48:48.1 434.12
15 5270 7/Mas1 TIC610601724 1979 Girardet Céline 3h34:42.3 49:50.3 442.92
16 5245 7/SEN TIC610602555 1992 Poumailloux Chloé 3h35:22.8 50:30.8 448.65
17 5293 8/SEN TIC610601399 1991 Delacroix Clara 3h35:29.6 50:37.6 449.62
18 5182 9/SEN TIC610602350 1987 Nay Martina 3h36:10.2 51:18.2 455.36
19 5017 8/Mas1 FFS720241 1982 COSTE LAURE MJ OYE-PALLET 3h38:12.1 53:20.1 472.62
20 5114 10/SEN TIC610601757 1985 Grandjean Noémie 3h40:08.4 55:16.4 489.08
21 5116 9/Mas1 TIC610602504 1981 Pichot Magalie 3h41:09.3 56:17.3 497.69
22 5230 11/SEN TIC610602891 1984 Tuckova Lenka 3h42:35.5 57:43.5 509.89
23 5025 10/Mas1 FFS720270 1979 LEYDER CECILE MJ CHAUX DOMBIE 3h43:49.0 58:57.0 520.30
24 5274 2/Mas4 TIC610602268 1966 Meylan Edith 3h44:12.7 59:20.7 523.65
25 5030 2/Mas3 TIC610602707 1972 Salvi Rosine 3h45:02.4 1h00:10.4 530.68
26 5199 12/SEN TIC610601518 1986 Durand Claire 3h45:20.6 1h00:28.6 533.26
27 5034 3/Mas3 TIC610602810 1969 Stoller-Danzer Brigitte 3h45:52.2 1h01:00.2 537.73
28 5285 1/Mas2 LCN11377741 1976 Billet Sandrine MJ A.S OYE ET P 3h46:08.3 1h01:16.3 540.01
29 5018 13/SEN LCN11391253 1987 Favre-Victoire Sandrine MB SKI CLUB BEL 3h47:41.1 1h02:49.1 553.15
30 5029 4/Mas3 FFS2627740 1968 PARMA CLAIRE MB SC CERN 3h48:57.1 1h04:05.1 563.90
31 5105 14/SEN FFS2292700 1989 BAVEREL CINDY MJ OYE-PALLET 3h49:10.5 1h04:18.5 565.80
32 5028 2/Mas2 TIC610602412 1977 Parent Emeline 3h50:48.3 1h05:56.3 579.64
33 5033 15/SEN FFS730071 1983 VERJUS NADIA MJ CHAUX DOMBIE 3h53:26.6 1h08:34.6 602.04
34 5015 16/SEN FFS2323001 1990 VERGUET MORVANE MJ HT JURA SKI 3h53:48.0 1h08:56.0 605.07
35 5021 17/SEN FFS2621717 1990 BOUST LUCILE DA CS VILLARD 3h53:49.8 1h08:57.8 605.33
36 5032 3/Mas4 FFS1210448 1964 SIMEON LAURE SA CS LA FECLAZ 3h54:13.0 1h09:21.0 608.61
37 5193 11/Mas1 TIC610601831 1980 Hegner Simone 3h54:34.1 1h09:42.1 611.60
38 5038 1/Mas6 FFS2253901 1956 PEQUIGNOT ODILE MV SC GUEBWILLE 3h54:57.4 1h10:05.4 614.89
39 5121 18/SEN LCN11406424 1985 Koch Mathian Caroline MJ ASSOCIATION 3h55:05.6 1h10:13.6 616.05
40 5101 3/Mas2 LCN11348856 1976 Amiotte Elen MJ ENTENTE SPOR 3h55:52.1 1h11:00.1 622.64
41 5031 19/SEN FFS2322705 1988 SALVI TIPHAINE MJ OLYMP MT DOR 3h58:25.4 1h13:33.4 644.33
42 5251 12/Mas1 LCN11404364 1978 Ballot Aurélie MJ SKI CLUB VAL 3h58:51.1 1h13:59.1 647.97
43 5110 4/Mas2 LCN11350915 1973 Girardet Patricia MJ A.S LES MOUS 3h59:40.8 1h14:48.8 655.00
44 5103 13/Mas1 LCN11348863 1979 Roussel Anne Sophie MJ ENTENTE SPOR 3h59:55.5 1h15:03.5 657.08
45 5164 4/Mas4 TIC610602305 1967 Montalti Carol 4h00:31.0 1h15:39.0 662.11
46 5284 5/Mas3 FFS2604834 1968 GALLAND HELENE AU SCP MEZENC 4h02:03.5 1h17:11.5 675.20
47 5168 5/Mas2 TIC610601609 1976 Flageollet Estelle 4h02:14.5 1h17:22.5 676.76
48 5123 6/Mas2 FFS2306217 1974 POSTY NADEGE MJ SC MONT D'OR 4h02:31.7 1h17:39.7 679.19
49 5267 20/SEN LCN11376402 1983 Donzel Amandine MB CLUB DES SPO 4h02:33.8 1h17:41.8 679.49
50 5227 21/SEN FFS2601743 1991 VAUCHIER JUSTINE MJ OYE-PALLET 4h03:34.0 1h18:42.0 688.01
51 5195 14/Mas1 LCN11354701 1978 Courvoisier Myriam MJ SKI CLUB MON 4h04:07.8 1h19:15.8 692.79
52 5186 15/Mas1 LCN11346341 1981 Forichon Caroline MB SKI CLUB DU 4h04:20.7 1h19:28.7 694.62
53 5014 6/Mas3 TIC610602573 1970 Profir Daniela 4h04:43.4 1h19:51.4 697.83
54 5106 22/SEN FFS2606184 1988 PONCHON LAURA AU CLERMONT SN 4h05:29.9 1h20:37.9 704.41
55 5125 23/SEN TIC610601528 1983 Duval Emilie 4h05:48.7 1h20:56.7 707.07
56 5009 24/SEN LCN11348807 1984 Gaillard Elodie MJ SKI CLUB DES 4h06:12.1 1h21:20.1 710.38
57 5113 16/Mas1 FFS2637396 1980 GRANGEON MARIE MJ OLYMP MT DOR 4h07:29.2 1h22:37.2 721.30
58 5124 17/Mas1 FFS2642775 1981 BARON LUDIVINE MJ VAL MORTEAU 4h08:11.8 1h23:19.8 727.32
59 5126 18/Mas1 TIC610602772 1978 Seta Clementine 4h08:21.4 1h23:29.4 728.68
60 5198 5/Mas4 TIC610602797 1964 Sparrow Antonia 4h09:20.7 1h24:28.7 737.08
61 5117 6/Mas4 LCN11340660 1964 Nicod Pascale MJ ASSO SPORTI 4h09:25.5 1h24:33.5 737.75
62 5262 25/SEN TIC610602022 1986 Lacroix Lucie 4h09:31.9 1h24:39.9 738.66
63 5226 7/Mas3 TIC610601893 1972 Jacquet Isabelle 4h09:53.4 1h25:01.4 741.70
64 5122 7/Mas4 TIC610601537 1967 Egli-Zaugg Annemarie 4h11:48.8 1h26:56.8 758.04
65 5169 26/SEN TIC610602156 1985 Maire Laura 4h14:40.9 1h29:48.9 782.39
66 5302 19/Mas1 TIC610601486 1981 Droz-Vincent Lydie 4h14:43.8 1h29:51.8 782.80
67 5273 8/Mas3 FFS2668179 1972 GOUTIERE CHANTAL SA CS LA FECLAZ 4h14:57.9 1h30:05.9 784.80
68 5109 20/Mas1 TIC610601988 1980 Komorniczak Nathalie 4h15:02.9 1h30:10.9 785.51
69 5301 27/SEN TIC610602909 1990 Valance Segolène 4h17:45.4 1h32:53.4 808.50
70 5111 7/Mas2 FFS2655958 1974 CLAUDEL PATRICIA MV SK DU TANET 4h17:54.1 1h33:02.1 809.74
71 5312 8/Mas2 TIC610600999 1974 Berrot Carine 4h18:24.3 1h33:32.3 814.01
72 5174 28/SEN TIC610601354 1989 Daloz Clemence 4h20:04.2 1h35:12.2 828.15
73 5108 9/Mas3 LCN11341277 1972 Pralus Anouk MB CLUB NORDIQU 4h23:31.2 1h38:39.2 857.45
74 5107 8/Mas4 TIC610602320 1966 Morisot Odile 4h23:32.2 1h38:40.2 857.59
75 5290 21/Mas1 TIC610600918 1982 Barbarin Caroline 4h23:33.2 1h38:41.2 857.73
76 5191 22/Mas1 LCN11377740 1979 Paillard Aline MJ A.S OYE ET P 4h24:13.5 1h39:21.5 863.43
77 5102 29/SEN LCN11349594 1983 Kuhni Jeunet Chloé MJ SKI CLUB CHA 4h24:21.1 1h39:29.1 864.51
78 5196 9/Mas2 TIC610602232 1975 Mayer Séverine 4h24:28.1 1h39:36.1 865.50
79 5170 9/Mas4 TIC610602005 1966 Krummenacher Lisbeth 4h25:07.5 1h40:15.5 871.07
80 5118 10/Mas2 TIC610601981 1974 Kirsanova Svetlana 4h25:41.2 1h40:49.2 875.84
81 5291 30/SEN LCN11369767 1989 Delobelle Marie MJ S.C DES DOUA 4h26:23.2 1h41:31.2 881.79
82 5241 31/SEN TIC610602427 1986 Payen Cassandre 4h26:47.7 1h41:55.7 885.26
83 5271 32/SEN FFS2669065 1987 PRIEUR CHARLINE MJ BOIS D'AMONT 4h27:14.4 1h42:22.4 889.03
84 5013 33/SEN FFS2292501 1989 MERCIER LESLIE MJ SC LESFOURGS 4h27:51.2 1h42:59.2 894.24
85 5120 10/Mas4 TIC610600895 1966 Authier Sophie 4h28:08.3 1h43:16.3 896.66
86 5282 23/Mas1 TIC610602541 1978 Poncet Céline 4h29:38.7 1h44:46.7 909.46
87 5154 11/Mas4 TIC610601260 1965 Chouinard Josée 4h30:28.3 1h45:36.3 916.48
88 5303 10/Mas3 TIC610601848 1971 Hilleret Marie Noëlle 4h30:35.1 1h45:43.1 917.44
89 5173 34/SEN TIC610602661 1990 Roland Lison 4h30:36.4 1h45:44.4 917.62
90 5172 1/Mas5 TIC610602038 1958 Lamy Françoise 4h31:44.2 1h46:52.2 927.22
91 5119 11/Mas3 FFS2668486 1970 MICARD VERONIQUE BO SCA CHALON 4h34:11.6 1h49:19.6 948.08
92 5151 12/Mas3 FFS2645744 1968 TRAHAND CECILE SA BAUGES S.N 4h34:12.7 1h49:20.7 948.24
93 5187 12/Mas4 TIC610601062 1964 Bokan Patricia 4h34:58.6 1h50:06.6 954.73
94 5300 11/Mas2 TIC610602066 1973 Le Fur Emilie 4h35:07.6 1h50:15.6 956.01
95 5269 24/Mas1 TIC610602341 1980 Mumprecht Viviane 4h35:12.3 1h50:20.3 956.67
96 5112 12/Mas2 TIC610602400 1973 Overnay Claire 4h42:47.7 1h57:55.7 1021.11
97 5163 2/Mas5 LCN11357170 1962 Cottet Sophie MJ SKI CLUB MON 4h43:02.7 1h58:10.7 1023.21
98 5297 13/Mas2 TIC610601626 1975 Forey Sandrine 4h43:32.7 1h58:40.7 1027.41
99 5189 25/Mas1 TIC610600878 1982 Arocena Ainhoa 4h46:01.0 2h01:09.0 1048.41
100 5223 14/Mas2 TIC610602678 1973 Roussel Cécile 4h46:41.3 2h01:49.3 1054.11
101 5179 13/Mas3 FFS2661363 1970 GEORGES LAURENCE MV LAC BLANC SN 4h47:51.2 2h02:59.2 1064.01
102 5176 15/Mas2 TIC610602130 1975 Lucas Mélanie 4h50:03.1 2h05:11.1 1082.71
103 5292 16/Mas2 TIC610601494 1974 Duc Monika 4h51:02.0 2h06:10.0 1091.01
104 5306 14/Mas3 TIC610602443 1972 Pentrella Nathalie 4h53:10.9 2h08:18.9 1109.31
105 5283 17/Mas2 TIC610602098 1974 Letoublon Alice 4h56:41.7 2h11:49.7 1139.11
106 5254 26/Mas1 TIC610601753 1982 Graf Stéphanie 4h56:57.3 2h12:05.3 1141.31
107 5258 35/SEN TIC610602734 1985 Schlachter Marianne 4h58:20.2 2h13:28.2 1153.01
108 5178 18/Mas2 TIC610601437 1977 Desaphy Delphine 5h00:04.7 2h15:12.7 1167.81
109 5276 27/Mas1 LCN11349831 1979 VEILLARD Laetitia MJ ENTENTE SPOR 5h00:49.9 2h15:57.9 1174.21
110 5183 3/Mas5 TIC610602787 1958 Smith Brenda 5h02:24.7 2h17:32.7 1187.61
111 5166 4/Mas5 LCN11342865 1959 Jacquier Marie-Aude MB CHABLAIS NOR 5h02:25.5 2h17:33.5 1187.81
112 5260 28/Mas1 LCN11339968 1978 Ramponi Michèle SA CENTRE SKI N 5h02:50.3 2h17:58.3 1191.31
113 5200 2/Mas6 TIC610601341 1956 Cuche Camille 5h03:11.8 2h18:19.8 1194.31
114 5192 19/Mas2 TIC610601087 1973 Bottero Caroline 5h03:27.2 2h18:35.2 1196.51
115 5225 15/Mas3 TIC610600944 1971 Baverel Katia 5h03:58.2 2h19:06.2 1200.91
116 5252 13/Mas4 TIC610602898 1967 Tyrode Martine 5h08:11.1 2h23:19.1 1236.71
117 5161 3/Mas6 LCN11406423 1953 Koch Mathian Francine 5h08:42.1 2h23:50.1 1241.11
118 5307 29/Mas1 TIC610601805 1982 Guion Héléne 5h09:53.1 2h25:01.1 1251.11
119 5304 36/SEN TIC610601777 1986 Groen Nina 5h09:58.0 2h25:06.0 1251.81
120 5248 30/Mas1 LCN11344108 1980 Moreau Laetitia IF A.S CHEMINOT 5h11:22.9 2h26:30.9 1263.81
121 5244 16/Mas3 TIC610601064 1970 Bole-Feysot Isabelle 5h12:28.8 2h27:36.8 1273.11
122 6316 20/Mas2 TIC610601288 1975 Collet Anne Lise 5h13:10.6 2h28:18.6 1279.11
123 5265 37/SEN TIC610601590 1985 Felice Civitillo Cristina 5h13:44.2 2h28:52.2 1283.81
124 5308 38/SEN TIC610602570 1987 Probst Lilli Teresa 5h14:43.2 2h29:51.2 1292.21
125 5314 21/Mas2 TIC610602779 1976 Sigonney Betty 5h15:23.6 2h30:31.6 1297.91
126 5315 31/Mas1 TIC610600940 1979 Baud Anne Laure 5h17:02.8 2h32:10.8 1311.91
127 5190 1/Mas7 LCN11378485 1948 Conti Michèle AP GPE SKIEURS 5h17:18.1 2h32:26.1 1314.11
128 5289 39/SEN TIC610602953 1987 Veynandt Aurélie 5h18:58.2 2h34:06.2 1328.31
129 5235 40/SEN TIC610600935 1987 Barthelon Justine 5h21:29.7 2h36:37.7 1349.71
130 5280 17/Mas3 TIC610602809 1971 Stolen Kira 5h23:29.3 2h38:37.3 1366.61
131 5242 5/Mas5 TIC610601011 1961 Bettis Kay 5h24:34.9 2h39:42.9 1375.91
132 5272 22/Mas2 TIC610602382 1976 Nugues-Ramos Stéphanie 5h28:24.5 2h43:32.5 1408.41
133 5167 4/Mas6 TIC610602293 1957 Miretti Nadine 5h29:45.4 2h44:53.4 1419.91
134 5281 41/SEN LCN11395464 1988 Nicolas Margot MJ Ski Club SAM 5h29:52.1 2h45:00.1 1420.81
135 5279 32/Mas1 TIC610601035 1979 Blancher Marine 5h30:42.0 2h45:50.0 1427.91
136 5250 42/SEN TIC610602676 1988 Rousseau Claire 5h31:36.7 2h46:44.7 1435.61
137 5175 43/SEN TIC610602991 1988 Vuez Anne 5h34:14.4 2h49:22.4 1457.91
138 5228 14/Mas4 LCN11346607 1963 Ceugniet Claire MB CLUB DES RAN 5h36:43.7 2h51:51.7 1479.11
139 5253 44/SEN TIC610601214 1987 Cedolin Alizée 5h38:28.8 2h53:36.8 1493.91
140 5185 1/Mas8 TIC610601618 1943 Flora Berit 5h38:40.5 2h53:48.5 1495.61
141 5310 5/Mas6 TIC610602981 1956 Visser Christina 5h40:45.5 2h55:53.5 1513.31
142 5236 23/Mas2 TIC610601940 1973 Joly Charlène 5h43:21.0 2h58:29.0 1535.31
143 5275 45/SEN TIC610602773 1985 Seton Emilie 5h44:04.3 2h59:12.3 1541.41
144 5197 15/Mas4 TIC610601349 1965 Curtet Anne 5h44:11.1 2h59:19.1 1542.41
145 5231 18/Mas3 TIC610602199 1969 Martinache-Schneider Muri 5h45:56.5 3h01:04.5 1557.31
146 5229 6/Mas5 TIC610602908 1962 Vadrot Brigitte 5h45:59.4 3h01:07.4 1557.71
147 5177 7/Mas5 TIC610602106 1958 Ligney Brigitte 5h47:22.8 3h02:30.8 1569.51
148 5247 8/Mas5 TIC610602584 1962 Querry Evelyne 5h47:24.8 3h02:32.8 1569.81
149 5309 46/SEN TIC610602466 1986 Perrin Aymeline 5h47:55.2 3h03:03.2 1574.11
150 5255 16/Mas4 LCN11348339 1963 ROUX DIDIER Martine MB CHABLAIS NOR 5h48:46.0 3h03:54.0 1581.31
151 5288 19/Mas3 TIC610602083 1970 Legal Laurence 5h51:29.9 3h06:37.9 1604.51
152 5257 9/Mas5 TIC610602109 1961 Lipniacka Anna 5h55:33.2 3h10:41.2 1638.91
153 5266 47/SEN TIC610602047 1983 Lantos Fruzsina 5h56:02.3 3h11:10.3 1643.01
154 5287 10/Mas5 TIC610600827 1958 Aarninsalo Outi 5h57:22.0 3h12:30.0 1654.31
155 5184 6/Mas6 TIC610601373 1955 De Freitas Jennie 5h58:38.6 3h13:46.6 1665.21
156 5294 33/Mas1 TIC610601770 1978 Grenard Anne 5h58:40.0 3h13:48.0 1665.31
157 5295 11/Mas5 TIC610601159 1962 Buisson Chantal 6h00:44.4 3h15:52.4 1683.01
158 5263 48/SEN TIC610602861 1984 Tirard Collet Nathalie 6h01:03.0 3h16:11.0 1685.61
159 5278 17/Mas4 TIC610601292 1964 Colombat Nathalie 6h04:59.5 3h20:07.5 1719.11
160 5286 18/Mas4 TIC610601743 1967 Gory Catherine 6h11:20.5 3h26:28.5 1773.01
161 5153 7/Mas6 TIC610602722 1956 Scapin Lucia 6h15:50.0 3h30:58.0 1811.11
162 5240 24/Mas2 TIC610601069 1974 Bonnamour Céline 6h17:19.1 3h32:27.1 1823.71
163 5296 8/Mas6 TIC610603008 1956 Wenger Nadine 6h23:47.4 3h38:55.4 1878.71
164 5180 9/Mas6 TIC610602113 1957 Lodge Hilary 6h26:52.1 3h42:00.1 1904.81
165 5305 10/Mas6 TIC610601202 1956 Carrer Nicole 6h27:18.5 3h42:26.5 1908.61
166 5313 25/Mas2 TIC610602288 1973 Millot Murielle 6h31:11.0 3h46:19.0 1941.51
167 5232 12/Mas5 TIC610602338 1960 Mugnier Brigitte 6h34:32.4 3h49:40.4 1970.01
168 5234 26/Mas2 TIC610601181 1974 Cally Anne-Sophie 6h48:32.5 4h03:40.5 2088.91
169 5264 19/Mas4 TIC610601986 1966 Kobayashi Hiromi 6h55:01.9 4h10:09.9 2144.01
170 5261 2/Mas8 TIC610602474 1945 Perrin Suzanne 7h03:16.0 4h18:24.0 2213.91
171 5162 20/Mas4 TIC610602469 1966 Perrin Françoise 7h05:20.5 4h20:28.5 2231.51
172 5222 11/Mas6 TIC610601663 1953 Gall Françoise 7h26:03.7 4h41:11.7 2407.51
173 5298 49/SEN TIC610602006 1986 Kudryavtseva-Cordier Liud 7h27:39.1 4h42:47.1 2421.01
174 5221 2/Mas7 FFS2348301 1949 GUET HELENE BO SC NEVERS 7h32:04.1 4h47:12.1 2458.51
175 5188 1/Mas9 TIC610601257 1942 Chini Maria Rita 7h39:13.2 4h54:21.2 2519.21
176 5259 34/Mas1 TIC610602531 1982 Poirier Nathalie 7h43:44.1 4h58:52.1 2557.61
177 5246 21/Mas4 TIC610602919 1967 van der Vaart Deliaan 8h19:47.6 5h34:55.6 2863.81
Abandons
5012 FFS2322986 1988 FERREUX CORALIE MJ SKI ROUSSES
5024 FFS2645232 1953 LATRY ODILE MV SC GUEBWILLE
5026 FFS2160987 1988 LOCATELLI ELODIE MJ OYE-PALLET
5152 FFS2621053 1991 RUTY ADELINE MJ SC NOZEROY
5165 LCN11344709 1950 Petroff Isabelle BO AM SPORTS
5181 TIC610600954 1955 Bech Aase
5194 FFS2306489 1967 DASSONNEVILLE SYLVIE MJ SKI ROUSSES
5233 TIC610602917 1969 van der Linden Nicolette
5238 TIC610602111 1986 Livers Sereina
5243 TIC610602424 1981 Patouillard Céline
5256 TIC610601075 1952 Bonnet-Ligeon Michèle
5277 TIC610602030 1947 Lalloue Nicole
Non partants
5224 LCN11349598 1982 Ferreux Suzy